Česky Dansk Deutsch English Español Suomi Français Magyar Italiano Nederlands norsk Polski Português svenska Türkçe

 

Het Weer

Dijon (Frankrijk)

05:30, 23 augustus 2016 (GMT)

NWNNE
WE
SWSSE
Home            
Dijon Dole Tavaux Besancon Chatillon-Sur-Seine Macon Luxeuil Saint-Yan Auxerre Les Eplatures Geneve-Cointrin Belfort Lausanne Troyes Amberieu Neuchatel Payerne St-Dizier Nevers Nancy / Ochey Lyon / Satolas Toul / Rosieres Lyon / Bron Grenchen

Om een weerknop op uw website of weblog te plaatsen, copieer onderstaande code en plak die in uw pagina. In het eerste vakje staat HTML-code, in het tweede vakje UBB-code.


Add to Google

Details

Wind speed:3 bf, 7 kn, 3.6 m/s, 8.1 miles/h, 13.0 km/h
Wind direction:N, 350°
Visibility:Greater than 10000 m, 10 km, 32800 ft, 6.2 miles
Clouds:CAVOC
Temperature:17°C, 63°F
Dew-point:13°C, 55°F
Atmospheric pressure:1026 hPa, 769.6 mmHg, 30.30 inHg, 1.013 atm
Relative humidity:77.3 %
METAR:LFSD 230530Z AUTO 35007KT CAVOK 17/13 Q1026

Snelkoppelingen

Actuele weersinformatie van de hele wereld. Voeg locaties toe met het plus (+) symbool. Deze snelkoppelingen kunnen worden toegevoegd aan Google.

Lid van de Technetium groep

website free tracking
StatCounter NetStat W3C Validator

25-11-2020 08:55:53
astro.technetium.be money.technetium.be phote.technetium.be tafeltennistafel.technetium.be www.ligfiets.net